createdAt,value
2022-09-12T00:01:27.466Z,99.90
2022-09-12T00:03:59.548Z,99.90
2022-09-12T00:06:28.686Z,99.90
2022-09-12T00:08:58.286Z,99.90
2022-09-12T00:11:26.220Z,99.90
2022-09-12T00:13:57.264Z,99.90
2022-09-12T00:16:25.388Z,99.90
2022-09-12T00:18:53.533Z,99.90
2022-09-12T00:21:21.105Z,99.90
2022-09-12T00:23:47.996Z,99.90
2022-09-12T00:26:15.509Z,99.90
2022-09-12T00:28:42.650Z,99.90
2022-09-12T00:31:12.110Z,99.90
2022-09-12T00:33:38.945Z,99.90
2022-09-12T00:36:12.278Z,99.90
2022-09-12T00:38:41.857Z,99.90
2022-09-12T00:41:16.607Z,99.90
2022-09-12T00:43:52.622Z,99.90
2022-09-12T00:46:31.785Z,99.90
2022-09-12T00:49:23.840Z,99.90
2022-09-12T00:52:06.368Z,99.90
2022-09-12T00:54:37.890Z,99.90
2022-09-12T00:57:09.365Z,99.90
2022-09-12T00:59:47.008Z,99.90
2022-09-12T01:02:13.787Z,99.90
2022-09-12T01:04:41.745Z,99.90
2022-09-12T01:07:09.045Z,99.90
2022-09-12T01:09:37.746Z,99.90
2022-09-12T01:12:05.927Z,99.90
2022-09-12T01:14:33.093Z,99.90
2022-09-12T01:16:59.710Z,99.90
2022-09-12T01:19:49.344Z,99.90
2022-09-12T01:22:40.753Z,99.90
2022-09-12T01:25:41.241Z,99.90
2022-09-12T01:28:07.750Z,99.90
2022-09-12T01:31:00.620Z,99.90
2022-09-12T01:33:48.793Z,99.90
2022-09-12T01:36:27.622Z,99.90
2022-09-12T01:39:05.390Z,99.90
2022-09-12T01:41:50.150Z,99.90
2022-09-12T01:44:35.177Z,99.90
2022-09-12T01:47:22.130Z,99.90
2022-09-12T01:50:02.909Z,99.90
2022-09-12T01:52:45.548Z,99.90
2022-09-12T01:55:27.354Z,99.90
2022-09-12T01:58:14.609Z,99.90
2022-09-12T02:01:08.207Z,99.90
2022-09-12T02:03:44.571Z,99.90
2022-09-12T02:06:39.512Z,99.90
2022-09-12T02:09:37.844Z,99.90
2022-09-12T02:12:08.613Z,99.90
2022-09-12T02:14:40.125Z,99.90
2022-09-12T02:17:26.259Z,99.90
2022-09-12T02:20:02.093Z,99.90
2022-09-12T02:22:31.474Z,99.90
2022-09-12T02:25:00.780Z,99.90
2022-09-12T02:27:56.534Z,99.90
2022-09-12T02:30:23.734Z,99.90
2022-09-12T02:33:04.059Z,99.90
2022-09-12T02:35:33.940Z,99.90
2022-09-12T02:38:12.411Z,99.90
2022-09-12T02:40:39.577Z,99.90
2022-09-12T02:43:06.809Z,99.90
2022-09-12T02:45:35.543Z,99.90
2022-09-12T02:48:08.289Z,99.90
2022-09-12T02:50:35.485Z,99.90
2022-09-12T02:53:04.953Z,99.90
2022-09-12T02:55:33.656Z,99.90
2022-09-12T02:58:03.162Z,99.90
2022-09-12T03:00:35.698Z,99.90
2022-09-12T03:03:21.766Z,99.90
2022-09-12T03:05:58.977Z,99.90
2022-09-12T03:08:47.057Z,99.90
2022-09-12T03:11:36.190Z,99.90
2022-09-12T03:14:36.481Z,99.90
2022-09-12T03:17:05.836Z,99.90
2022-09-12T03:19:57.818Z,99.90
2022-09-12T03:23:03.861Z,99.90
2022-09-12T03:25:41.925Z,99.90
2022-09-12T03:28:15.229Z,99.90
2022-09-12T03:30:45.882Z,99.90
2022-09-12T03:33:14.441Z,99.90
2022-09-12T03:35:41.614Z,99.90
2022-09-12T03:38:08.695Z,99.90
2022-09-12T03:40:36.547Z,99.90
2022-09-12T03:43:04.558Z,99.90
2022-09-12T03:45:31.394Z,99.90
2022-09-12T03:47:59.204Z,99.90
2022-09-12T03:50:25.973Z,99.90
2022-09-12T03:52:52.698Z,99.90
2022-09-12T03:55:19.725Z,99.90
2022-09-12T03:57:46.280Z,99.90
2022-09-12T04:00:17.649Z,99.90
2022-09-12T04:02:46.376Z,99.90
2022-09-12T04:05:12.997Z,99.90
2022-09-12T04:07:39.566Z,99.90
2022-09-12T04:10:06.708Z,99.90
2022-09-12T04:12:33.276Z,99.90
2022-09-12T04:14:59.845Z,99.90
2022-09-12T04:17:26.385Z,99.90
2022-09-12T04:19:52.969Z,99.90
2022-09-12T04:22:20.396Z,99.90
2022-09-12T04:24:47.044Z,99.90
2022-09-12T04:27:13.636Z,99.90
2022-09-12T04:29:40.264Z,99.90
2022-09-12T04:32:06.873Z,99.90
2022-09-12T04:34:33.413Z,99.90
2022-09-12T04:37:01.148Z,99.90
2022-09-12T04:39:27.723Z,99.90
2022-09-12T04:41:54.273Z,99.90
2022-09-12T04:44:20.889Z,99.90
2022-09-12T04:46:47.588Z,99.90
2022-09-12T04:49:19.271Z,99.90
2022-09-12T04:51:46.097Z,99.90
2022-09-12T04:54:16.393Z,99.90
2022-09-12T04:56:45.938Z,99.90
2022-09-12T04:59:15.706Z,99.90
2022-09-12T05:01:42.718Z,99.90
2022-09-12T05:04:10.849Z,99.90
2022-09-12T05:06:38.291Z,99.90
2022-09-12T05:09:06.969Z,99.90
2022-09-12T05:12:02.804Z,99.90
2022-09-12T05:14:23.608Z,99.90
2022-09-12T05:16:50.228Z,99.90
2022-09-12T05:19:17.272Z,99.90
2022-09-12T05:21:43.887Z,99.90
2022-09-12T05:24:11.305Z,99.90
2022-09-12T05:26:38.176Z,99.90
2022-09-12T05:29:06.032Z,99.90
2022-09-12T05:31:32.949Z,99.90
2022-09-12T05:33:59.489Z,99.90
2022-09-12T05:36:30.388Z,99.90
2022-09-12T05:38:57.268Z,99.90
2022-09-12T05:41:26.465Z,99.90
2022-09-12T05:43:54.765Z,99.90
2022-09-12T05:46:25.572Z,99.90
2022-09-12T05:48:56.287Z,99.90
2022-09-12T05:51:28.439Z,99.90
2022-09-12T05:54:00.010Z,99.90
2022-09-12T05:56:28.956Z,99.90
2022-09-12T05:59:07.321Z,99.90
2022-09-12T06:01:35.291Z,99.90
2022-09-12T06:04:04.572Z,99.90
2022-09-12T06:06:32.651Z,99.90
2022-09-12T06:09:01.744Z,99.90
2022-09-12T06:11:30.353Z,99.90
2022-09-12T06:13:58.308Z,99.90
2022-09-12T06:16:28.113Z,99.90
2022-09-12T06:18:56.653Z,99.90
2022-09-12T06:21:24.663Z,99.90
2022-09-12T06:23:51.493Z,99.90
2022-09-12T06:26:21.427Z,99.90
2022-09-12T06:28:48.140Z,99.90
2022-09-12T06:31:17.528Z,99.90
2022-09-12T06:33:46.782Z,99.90
2022-09-12T06:36:22.925Z,99.90
2022-09-12T06:38:55.234Z,99.90
2022-09-12T06:41:21.917Z,99.90
2022-09-12T06:43:48.485Z,99.90
2022-09-12T06:46:15.103Z,99.90
2022-09-12T06:48:42.320Z,99.90
2022-09-12T06:51:15.000Z,99.90
2022-09-12T06:53:42.516Z,99.90
2022-09-12T06:56:14.248Z,99.90
2022-09-12T06:58:41.872Z,99.90
2022-09-12T07:01:15.026Z,99.90
2022-09-12T07:03:42.974Z,99.90
2022-09-12T07:06:12.265Z,99.90
2022-09-12T07:08:40.777Z,99.90
2022-09-12T07:11:16.179Z,99.90
2022-09-12T07:13:45.203Z,99.90
2022-09-12T07:16:17.298Z,99.90
2022-09-12T07:18:54.536Z,99.90
2022-09-12T07:21:21.432Z,99.90
2022-09-12T07:23:49.091Z,99.90
2022-09-12T07:26:16.578Z,99.90
2022-09-12T07:28:43.867Z,99.80
2022-09-12T07:31:14.802Z,99.90
2022-09-12T07:33:42.638Z,99.90
2022-09-12T07:36:12.403Z,99.90
2022-09-12T07:38:39.793Z,99.90
2022-09-12T07:41:15.366Z,99.90
2022-09-12T07:43:41.982Z,99.90
2022-09-12T07:46:09.147Z,99.90
2022-09-12T07:48:36.113Z,99.90
2022-09-12T07:51:05.700Z,99.90
2022-09-12T07:53:35.318Z,99.90
2022-09-12T07:56:03.036Z,99.90
2022-09-12T07:58:30.721Z,99.90
2022-09-12T08:01:15.333Z,99.90
2022-09-12T08:03:43.872Z,99.90
2022-09-12T08:06:15.774Z,99.90
2022-09-12T08:08:43.142Z,99.90
2022-09-12T08:11:12.624Z,99.90
2022-09-12T08:13:40.593Z,99.90
2022-09-12T08:16:29.463Z,99.90
2022-09-12T08:18:56.053Z,99.90
2022-09-12T08:21:25.207Z,99.90
2022-09-12T08:23:54.039Z,99.90
2022-09-12T08:26:20.988Z,99.90
2022-09-12T08:28:48.033Z,99.90
2022-09-12T08:31:17.252Z,99.90
2022-09-12T08:33:44.744Z,99.90
2022-09-12T08:36:17.257Z,99.90
2022-09-12T08:38:46.070Z,99.90
2022-09-12T08:41:18.723Z,99.90
2022-09-12T08:44:19.779Z,99.90
2022-09-12T08:47:31.565Z,99.90
2022-09-12T08:50:10.098Z,99.90
2022-09-12T08:52:41.273Z,99.90
2022-09-12T08:55:36.727Z,99.90
2022-09-12T08:58:20.092Z,99.90
2022-09-12T09:01:08.440Z,99.90
2022-09-12T09:04:01.286Z,99.90
2022-09-12T09:06:59.114Z,99.90
2022-09-12T09:09:43.016Z,99.90
2022-09-12T09:12:39.950Z,99.90
2022-09-12T09:15:28.287Z,99.90
2022-09-12T09:18:18.370Z,99.90
2022-09-12T09:21:06.407Z,99.90
2022-09-12T09:23:46.648Z,99.90
2022-09-12T09:26:20.025Z,99.90
2022-09-12T09:29:07.655Z,99.90
2022-09-12T09:31:38.573Z,99.90
2022-09-12T09:34:35.323Z,99.90
2022-09-12T09:37:29.974Z,99.90
2022-09-12T09:40:02.552Z,99.90
2022-09-12T09:42:31.997Z,99.90
2022-09-12T09:45:02.770Z,99.90
2022-09-12T09:47:29.391Z,99.90
2022-09-12T09:49:56.003Z,99.90
2022-09-12T09:52:29.453Z,99.90
2022-09-12T09:55:00.040Z,99.90
2022-09-12T09:57:35.703Z,99.90
2022-09-12T10:00:21.913Z,99.90
2022-09-12T10:03:04.329Z,99.90
2022-09-12T10:05:34.829Z,99.90
2022-09-12T10:08:03.269Z,99.90
2022-09-12T10:10:29.804Z,99.90
2022-09-12T10:13:21.906Z,99.90
2022-09-12T10:16:02.046Z,99.90
2022-09-12T10:18:40.631Z,99.90
2022-09-12T10:21:29.425Z,99.90
2022-09-12T10:24:24.320Z,99.90
2022-09-12T10:26:57.686Z,99.90
2022-09-12T10:29:32.225Z,99.90
2022-09-12T10:32:03.146Z,99.90
2022-09-12T10:34:34.742Z,99.90
2022-09-12T10:37:31.965Z,99.90
2022-09-12T10:40:00.659Z,99.90
2022-09-12T10:42:49.495Z,99.90
2022-09-12T10:45:37.485Z,99.90
2022-09-12T10:48:29.180Z,99.90
2022-09-12T10:50:57.006Z,99.90
2022-09-12T10:53:25.181Z,99.90
2022-09-12T10:56:06.822Z,99.90
2022-09-12T10:58:36.722Z,99.90
2022-09-12T11:01:32.077Z,99.90
2022-09-12T11:04:26.181Z,99.90
2022-09-12T11:07:07.865Z,99.90
2022-09-12T11:09:48.449Z,99.90
2022-09-12T11:12:38.841Z,99.90
2022-09-12T11:15:36.285Z,99.90
2022-09-12T11:18:27.930Z,99.90
2022-09-12T11:21:02.011Z,99.90
2022-09-12T11:24:16.057Z,99.90
2022-09-12T11:26:47.386Z,99.90
2022-09-12T11:29:21.466Z,99.90
2022-09-12T11:32:06.783Z,99.90
2022-09-12T11:34:50.728Z,99.90
2022-09-12T11:37:27.694Z,99.90
2022-09-12T11:39:56.264Z,99.90
2022-09-12T11:42:28.293Z,99.90
2022-09-12T11:45:07.963Z,99.90
2022-09-12T11:47:36.888Z,99.90
2022-09-12T11:50:15.989Z,99.90
2022-09-12T11:52:42.545Z,99.90
2022-09-12T11:55:17.687Z,99.90
2022-09-12T11:57:52.839Z,99.90
2022-09-12T12:00:39.304Z,99.90
2022-09-12T12:03:27.097Z,99.90
2022-09-12T12:06:19.353Z,99.90
2022-09-12T12:08:47.814Z,99.90
2022-09-12T12:11:31.757Z,99.90
2022-09-12T12:14:12.777Z,99.90
2022-09-12T12:16:41.045Z,99.90
2022-09-12T12:19:34.384Z,99.90
2022-09-12T12:22:17.079Z,99.90
2022-09-12T12:25:05.788Z,99.90
2022-09-12T12:27:44.498Z,99.90
2022-09-12T12:30:29.418Z,99.90
2022-09-12T12:33:12.934Z,99.50
2022-09-12T12:35:42.261Z,99.70
2022-09-12T12:38:38.157Z,99.70
2022-09-12T12:41:17.091Z,98.60
2022-09-12T12:43:47.837Z,98.50
2022-09-12T12:46:20.865Z,97.20
2022-09-12T12:49:20.013Z,99.70
2022-09-12T12:52:03.261Z,98.60
2022-09-12T12:54:42.064Z,98.20
2022-09-12T12:57:19.622Z,97.70
2022-09-12T12:59:56.068Z,97.60
2022-09-12T13:02:32.581Z,98.10
2022-09-12T13:05:02.982Z,98.50
2022-09-12T13:07:34.481Z,98.40
2022-09-12T13:10:02.072Z,97.90
2022-09-12T13:12:33.998Z,97.60
2022-09-12T13:15:02.730Z,97.70
2022-09-12T13:17:35.293Z,97.10
2022-09-12T13:20:29.651Z,98.20
2022-09-12T13:22:57.817Z,97.90
2022-09-12T13:25:26.227Z,97.60
2022-09-12T13:28:04.828Z,97.90
2022-09-12T13:30:37.586Z,97.80
2022-09-12T13:33:39.817Z,98.10
2022-09-12T13:36:33.515Z,99.60
2022-09-12T13:39:03.252Z,97.20
2022-09-12T13:41:49.549Z,97.00
2022-09-12T13:44:19.537Z,97.50
2022-09-12T13:46:47.734Z,97.40
2022-09-12T13:49:38.101Z,97.30
2022-09-12T13:52:08.225Z,97.20
2022-09-12T13:54:37.982Z,97.00
2022-09-12T13:57:05.677Z,97.70
2022-09-12T13:59:44.455Z,97.70
2022-09-12T14:02:22.253Z,98.50
2022-09-12T14:05:09.321Z,98.20
2022-09-12T14:07:57.023Z,98.40
2022-09-12T14:10:31.734Z,97.40
2022-09-12T14:13:00.828Z,97.80
2022-09-12T14:15:30.581Z,98.70
2022-09-12T14:18:01.475Z,97.70
2022-09-12T14:20:33.447Z,96.90
2022-09-12T14:23:04.143Z,97.40
2022-09-12T14:25:37.380Z,97.60
2022-09-12T14:28:04.758Z,97.50
2022-09-12T14:30:34.633Z,98.00
2022-09-12T14:33:10.161Z,98.00
2022-09-12T14:35:42.733Z,98.60
2022-09-12T14:38:15.990Z,98.40
2022-09-12T14:40:59.539Z,98.40
2022-09-12T14:43:29.349Z,98.20
2022-09-12T14:46:02.863Z,97.40
2022-09-12T14:48:32.660Z,97.50
2022-09-12T14:50:59.886Z,97.80
2022-09-12T14:53:36.451Z,97.80
2022-09-12T14:56:12.476Z,98.30
2022-09-12T14:58:41.028Z,98.60
2022-09-12T15:01:08.044Z,98.50
2022-09-12T15:03:35.979Z,98.40
2022-09-12T15:06:04.813Z,98.10
2022-09-12T15:08:32.187Z,98.20
2022-09-12T15:10:59.400Z,98.10
2022-09-12T15:13:27.986Z,98.50
2022-09-12T15:15:55.699Z,98.40
2022-09-12T15:18:24.462Z,97.90
2022-09-12T15:20:54.828Z,97.70
2022-09-12T15:23:27.349Z,98.00
2022-09-12T15:25:54.130Z,98.30
2022-09-12T15:28:22.952Z,98.30
2022-09-12T15:30:52.202Z,98.30
2022-09-12T15:33:21.009Z,98.40
2022-09-12T15:35:47.676Z,98.60
2022-09-12T15:38:14.355Z,98.70
2022-09-12T15:40:41.001Z,99.20
2022-09-12T15:43:07.636Z,98.80
2022-09-12T15:45:35.329Z,98.90
2022-09-12T15:48:03.266Z,99.40
2022-09-12T15:50:30.722Z,99.60
2022-09-12T15:52:58.350Z,99.70
2022-09-12T15:55:31.985Z,99.90
2022-09-12T15:58:03.556Z,99.90
2022-09-12T16:00:32.945Z,99.90
2022-09-12T16:02:59.543Z,99.90
2022-09-12T16:05:26.794Z,99.90
2022-09-12T16:07:54.638Z,99.90
2022-09-12T16:10:27.397Z,99.90
2022-09-12T16:12:54.497Z,99.90
2022-09-12T16:15:23.658Z,99.90
2022-09-12T16:17:51.157Z,99.90
2022-09-12T16:20:19.224Z,99.90
2022-09-12T16:22:45.942Z,99.90
2022-09-12T16:25:12.591Z,99.90
2022-09-12T16:27:39.505Z,99.90
2022-09-12T16:30:07.459Z,99.90
2022-09-12T16:32:34.366Z,99.90
2022-09-12T16:35:00.996Z,99.90
2022-09-12T16:37:27.921Z,99.90
2022-09-12T16:39:54.706Z,99.90
2022-09-12T16:42:21.381Z,99.90
2022-09-12T16:44:47.965Z,99.90
2022-09-12T16:47:15.093Z,99.90
2022-09-12T16:49:41.658Z,99.90
2022-09-12T16:52:08.361Z,99.90
2022-09-12T16:54:35.076Z,99.90
2022-09-12T16:57:02.495Z,99.90
2022-09-12T16:59:29.040Z,99.90
2022-09-12T17:01:55.661Z,99.90
2022-09-12T17:04:23.743Z,99.90
2022-09-12T17:06:50.487Z,99.90
2022-09-12T17:09:18.475Z,99.90
2022-09-12T17:11:50.160Z,99.90
2022-09-12T17:14:17.112Z,99.90
2022-09-12T17:16:51.467Z,99.90
2022-09-12T17:19:27.903Z,99.90
2022-09-12T17:21:54.666Z,99.90
2022-09-12T17:24:21.742Z,99.90
2022-09-12T17:26:48.929Z,99.90
2022-09-12T17:29:16.656Z,99.90
2022-09-12T17:31:44.387Z,99.90
2022-09-12T17:34:16.064Z,99.90
2022-09-12T17:36:44.353Z,99.90
2022-09-12T17:39:13.499Z,99.90
2022-09-12T17:41:41.809Z,99.90
2022-09-12T17:44:11.254Z,99.90
2022-09-12T17:46:39.084Z,99.90
2022-09-12T17:49:10.565Z,99.90
2022-09-12T17:51:37.240Z,99.90
2022-09-12T17:54:04.313Z,99.90
2022-09-12T17:56:32.261Z,99.90
2022-09-12T17:58:59.842Z,99.90
2022-09-12T18:01:46.971Z,99.90
2022-09-12T18:04:14.057Z,99.90
2022-09-12T18:06:47.573Z,99.90
2022-09-12T18:09:19.437Z,99.90
2022-09-12T18:11:46.695Z,99.90
2022-09-12T18:14:14.475Z,99.90
2022-09-12T18:16:41.873Z,99.90
2022-09-12T18:19:08.601Z,99.90
2022-09-12T18:21:35.306Z,99.90
2022-09-12T18:24:03.190Z,99.90
2022-09-12T18:26:30.890Z,99.90
2022-09-12T18:28:58.089Z,99.90
2022-09-12T18:31:28.975Z,99.90
2022-09-12T18:33:56.234Z,99.90
2022-09-12T18:36:22.899Z,99.90
2022-09-12T18:38:49.588Z,99.90
2022-09-12T18:41:21.622Z,99.90
2022-09-12T18:43:49.310Z,99.90
2022-09-12T18:46:18.701Z,99.90
2022-09-12T18:48:46.649Z,99.90
2022-09-12T18:51:15.739Z,99.90
2022-09-12T18:53:42.964Z,99.90
2022-09-12T18:56:13.605Z,99.90
2022-09-12T18:58:42.592Z,99.90
2022-09-12T19:01:17.678Z,99.90
2022-09-12T19:03:44.367Z,99.90
2022-09-12T19:06:17.560Z,99.90
2022-09-12T19:08:44.900Z,99.90
2022-09-12T19:11:12.574Z,99.90
2022-09-12T19:13:41.858Z,99.90
2022-09-12T19:16:11.336Z,99.90
2022-09-12T19:18:39.758Z,99.90
2022-09-12T19:21:08.784Z,99.90
2022-09-12T19:23:36.041Z,99.90
2022-09-12T19:26:05.969Z,99.90
2022-09-12T19:28:33.097Z,99.90
2022-09-12T19:31:00.273Z,99.90
2022-09-12T19:33:26.850Z,99.90
2022-09-12T19:35:53.420Z,99.90
2022-09-12T19:38:20.102Z,99.90
2022-09-12T19:40:56.830Z,99.90
2022-09-12T19:43:23.957Z,99.90
2022-09-12T19:45:51.849Z,99.90
2022-09-12T19:48:19.461Z,99.90
2022-09-12T19:50:46.188Z,99.90
2022-09-12T19:53:12.796Z,99.90
2022-09-12T19:55:39.794Z,99.90
2022-09-12T19:58:06.533Z,99.90
2022-09-12T20:00:34.554Z,99.90
2022-09-12T20:03:01.415Z,99.90
2022-09-12T20:05:28.149Z,99.90
2022-09-12T20:07:54.726Z,99.90
2022-09-12T20:10:21.284Z,99.90
2022-09-12T20:12:47.848Z,99.90
2022-09-12T20:15:14.438Z,99.90
2022-09-12T20:17:41.015Z,99.90
2022-09-12T20:20:09.739Z,99.90
2022-09-12T20:22:40.020Z,99.90
2022-09-12T20:25:07.454Z,99.90
2022-09-12T20:27:34.004Z,99.90
2022-09-12T20:30:00.582Z,99.90
2022-09-12T20:32:28.804Z,99.90
2022-09-12T20:34:56.286Z,99.90
2022-09-12T20:37:23.554Z,99.90
2022-09-12T20:39:51.073Z,99.90
2022-09-12T20:42:17.873Z,99.90
2022-09-12T20:44:44.487Z,99.90
2022-09-12T20:47:11.216Z,99.90
2022-09-12T20:49:37.789Z,99.90
2022-09-12T20:52:04.566Z,99.90
2022-09-12T20:54:31.185Z,99.90
2022-09-12T20:56:57.745Z,99.90
2022-09-12T20:59:24.284Z,99.90
2022-09-12T21:01:50.902Z,99.90
2022-09-12T21:04:18.320Z,99.90
2022-09-12T21:06:44.924Z,99.90
2022-09-12T21:09:11.493Z,99.90
2022-09-12T21:11:38.039Z,99.90
2022-09-12T21:14:04.693Z,99.90
2022-09-12T21:16:31.615Z,99.90
2022-09-12T21:18:59.420Z,99.90
2022-09-12T21:21:26.737Z,99.90
2022-09-12T21:23:56.965Z,99.90
2022-09-12T21:26:23.645Z,99.90
2022-09-12T21:28:50.236Z,99.90
2022-09-12T21:31:16.902Z,99.90
2022-09-12T21:33:43.502Z,99.90
2022-09-12T21:36:10.285Z,99.90
2022-09-12T21:38:37.082Z,99.90
2022-09-12T21:41:14.520Z,99.90
2022-09-12T21:43:41.912Z,99.90
2022-09-12T21:46:09.714Z,99.90
2022-09-12T21:48:37.258Z,99.90
2022-09-12T21:51:04.181Z,99.90
2022-09-12T21:53:31.792Z,99.90
2022-09-12T21:56:07.247Z,99.90
2022-09-12T21:58:33.840Z,99.90
2022-09-12T22:01:01.087Z,99.90
2022-09-12T22:03:28.937Z,99.90
2022-09-12T22:06:01.400Z,99.90
2022-09-12T22:08:28.954Z,99.90
2022-09-12T22:11:00.739Z,99.90
2022-09-12T22:13:27.837Z,99.90
2022-09-12T22:15:54.477Z,99.90
2022-09-12T22:18:21.085Z,99.90
2022-09-12T22:20:47.626Z,99.90
2022-09-12T22:23:33.117Z,99.90
2022-09-12T22:26:01.536Z,99.90
2022-09-12T22:28:29.661Z,99.90
2022-09-12T22:30:56.764Z,99.90
2022-09-12T22:33:23.357Z,99.90
2022-09-12T22:35:49.902Z,99.90
2022-09-12T22:38:16.459Z,99.90
2022-09-12T22:40:43.017Z,99.90
2022-09-12T22:43:09.612Z,99.90
2022-09-12T22:45:36.161Z,99.90
2022-09-12T22:48:06.215Z,99.90
2022-09-12T22:50:35.598Z,99.90
2022-09-12T22:53:02.178Z,99.90
2022-09-12T22:55:28.724Z,99.90
2022-09-12T22:57:55.270Z,99.90
2022-09-12T23:00:22.053Z,99.90
2022-09-12T23:02:48.609Z,99.90
2022-09-12T23:05:15.272Z,99.90
2022-09-12T23:07:41.901Z,99.90
2022-09-12T23:10:09.200Z,99.90
2022-09-12T23:12:35.867Z,99.90
2022-09-12T23:15:02.547Z,99.90
2022-09-12T23:17:29.114Z,99.90
2022-09-12T23:19:55.653Z,99.90
2022-09-12T23:22:22.237Z,99.90
2022-09-12T23:24:48.784Z,99.90
2022-09-12T23:27:15.371Z,99.90
2022-09-12T23:29:41.970Z,99.90
2022-09-12T23:32:08.601Z,99.90
2022-09-12T23:34:35.249Z,99.90
2022-09-12T23:37:01.802Z,99.90
2022-09-12T23:39:28.538Z,99.90
2022-09-12T23:41:55.482Z,99.90
2022-09-12T23:44:22.037Z,99.90
2022-09-12T23:46:48.590Z,99.90
2022-09-12T23:49:15.340Z,99.90
2022-09-12T23:51:41.898Z,99.90
2022-09-12T23:54:08.661Z,99.90
2022-09-12T23:56:35.212Z,99.90
2022-09-12T23:59:01.833Z,99.90
